SEKCJA WYDRUKÓW, pokaż »

METAR EPBY 220000Z 09009KT CAVOK 17/12 Q1011=

METAR EPGD 220000Z 05008KT CAVOK 15/13 Q1014 =

METAR EPKK 220000Z 04004KT CAVOK 17/13 Q1009 =

METAR EPKT 220000Z VRB01KT CAVOK 15/12 Q1009 =

METAR EPLB 220000Z 07005KT CAVOK 15/14 Q1011 =

METAR EPLL 220000Z 08008KT CAVOK 18/11 Q1010 =

METAR EPML 220000Z NIL=

METAR EPMO 220000Z 06009KT CAVOK 16/12 Q1012 =

METAR EPPO 220000Z 07009KT CAVOK 18/12 Q1009 =

METAR EPRA 220000Z 09006KT CAVOK 16/13 Q1011=

METAR EPRZ 220000Z 08005KT CAVOK 16/13 Q1010 =

METAR EPSC 220000Z 06008KT CAVOK 18/13 Q1010 =

METAR EPSY 220000Z 05005KT 020V080 CAVOK 14/11 Q1014=

METAR EPWA 220000Z 08010KT CAVOK 19/12 Q1012 NOSIG=

METAR EPWR 220000Z 10010KT CAVOK 21/12 Q1007 =

METAR EPZG 220000Z NIL=